Kualanamu International Airport

Airport
ICAO code: 
WIMM
IATA Code: 
KNO
Summary
ICAO Region: 
APAC
Territory: 
Location: 
Deli Serdang, Sumatra
Serving: 
Medan
Elevation: 
23 ft
Coordinates: 
Aerial View: 
3° 37' 52.326" N, 98° 52' 30.257" E
Metar
Observation
WIMM 171730Z 22005KT 8000 SCT017 27/26 Q1011 NOSIG
Station
Medan / Polonia
Date/Time
2022-01-17 17:30:00
Wind direction
220°
Wind speed
05 kts
Lowest cloud amount
scattered clouds
Temperature
27°C
Dew point
26°C
Humidity
94%
QNH
1011 hPa
Weather condition
n/a

International Airport serving the city of Medan, Indonesia, about 26 km east of the city.

Climatology

Tropical Rainforest climate (Köppen climate classification Af)

Runways

Designator Length Width Surface Rops
5/23 2900 45 ASP Yes/Yes
Airport map: 
Aerial View: 

Accidents and Serious Incidents at or in the vicinity of WIMM

SKYbrary Partners:

Safety knowledge contributed by: